sensor_id;sensor_type;location;lat;lon;timestamp;temperature;humidity
78704;SHT31;68034;51.966;5.676;2023-09-18T00:00:10;19.5;87.2
78704;SHT31;68034;51.966;5.676;2023-09-18T00:02:39;19.5;87.1
78704;SHT31;68034;51.966;5.676;2023-09-18T00:05:10;19.4;87.1
78704;SHT31;68034;51.966;5.676;2023-09-18T00:07:40;19.4;87.0
78704;SHT31;68034;51.966;5.676;2023-09-18T00:10:09;19.4;87.1
78704;SHT31;68034;51.966;5.676;2023-09-18T00:12:39;19.4;87.2
78704;SHT31;68034;51.966;5.676;2023-09-18T00:15:08;19.4;87.1
78704;SHT31;68034;51.966;5.676;2023-09-18T00:17:37;19.4;87.1
78704;SHT31;68034;51.966;5.676;2023-09-18T00:20:06;19.4;87.1
78704;SHT31;68034;51.966;5.676;2023-09-18T00:22:35;19.4;87.0
78704;SHT31;68034;51.966;5.676;2023-09-18T00:25:04;19.4;87.0
78704;SHT31;68034;51.966;5.676;2023-09-18T00:27:33;19.4;86.9
78704;SHT31;68034;51.966;5.676;2023-09-18T00:30:03;19.4;87.0
78704;SHT31;68034;51.966;5.676;2023-09-18T00:32:32;19.4;87.0
78704;SHT31;68034;51.966;5.676;2023-09-18T00:35:03;19.4;87.0
78704;SHT31;68034;51.966;5.676;2023-09-18T00:37:32;19.4;86.9
78704;SHT31;68034;51.966;5.676;2023-09-18T00:40:01;19.4;86.9
78704;SHT31;68034;51.966;5.676;2023-09-18T00:42:30;19.4;86.9
78704;SHT31;68034;51.966;5.676;2023-09-18T00:44:58;19.4;86.8
78704;SHT31;68034;51.966;5.676;2023-09-18T00:47:30;19.3;86.9
78704;SHT31;68034;51.966;5.676;2023-09-18T00:49:58;19.3;86.9
78704;SHT31;68034;51.966;5.676;2023-09-18T00:52:27;19.3;86.9
78704;SHT31;68034;51.966;5.676;2023-09-18T00:54:56;19.3;86.9
78704;SHT31;68034;51.966;5.676;2023-09-18T00:57:26;19.3;87.0
78704;SHT31;68034;51.966;5.676;2023-09-18T00:59:55;19.3;87.1
78704;SHT31;68034;51.966;5.676;2023-09-18T01:02:23;19.3;87.1
78704;SHT31;68034;51.966;5.676;2023-09-18T01:04:55;19.3;87.2
78704;SHT31;68034;51.966;5.676;2023-09-18T01:07:24;19.3;87.1
78704;SHT31;68034;51.966;5.676;2023-09-18T01:09:52;19.3;87.2
78704;SHT31;68034;51.966;5.676;2023-09-18T01:12:31;19.3;88.2
78704;SHT31;68034;51.966;5.676;2023-09-18T01:15:15;19.3;89.4
78704;SHT31;68034;51.966;5.676;2023-09-18T01:17:48;19.3;90.0
78704;SHT31;68034;51.966;5.676;2023-09-18T01:20:16;19.3;89.4
78704;SHT31;68034;51.966;5.676;2023-09-18T01:22:46;19.3;89.1
78704;SHT31;68034;51.966;5.676;2023-09-18T01:25:16;19.3;88.7
78704;SHT31;68034;51.966;5.676;2023-09-18T01:27:45;19.3;88.5
78704;SHT31;68034;51.966;5.676;2023-09-18T01:30:13;19.3;88.2
78704;SHT31;68034;51.966;5.676;2023-09-18T01:32:45;19.3;88.1
78704;SHT31;68034;51.966;5.676;2023-09-18T01:35:17;19.3;88.0
78704;SHT31;68034;51.966;5.676;2023-09-18T01:37:46;19.3;87.8
78704;SHT31;68034;51.966;5.676;2023-09-18T01:40:15;19.3;87.7
78704;SHT31;68034;51.966;5.676;2023-09-18T01:42:46;19.3;87.6
78704;SHT31;68034;51.966;5.676;2023-09-18T01:45:15;19.3;87.6
78704;SHT31;68034;51.966;5.676;2023-09-18T01:47:43;19.3;87.4
78704;SHT31;68034;51.966;5.676;2023-09-18T01:50:12;19.3;87.3
78704;SHT31;68034;51.966;5.676;2023-09-18T01:52:41;19.3;87.2
78704;SHT31;68034;51.966;5.676;2023-09-18T01:55:10;19.3;87.1
78704;SHT31;68034;51.966;5.676;2023-09-18T01:57:39;19.3;87.0
78704;SHT31;68034;51.966;5.676;2023-09-18T02:00:09;19.3;87.1
78704;SHT31;68034;51.966;5.676;2023-09-18T02:02:38;19.3;87.1
78704;SHT31;68034;51.966;5.676;2023-09-18T02:05:07;19.2;87.0
78704;SHT31;68034;51.966;5.676;2023-09-18T02:07:36;19.2;87.1
78704;SHT31;68034;51.966;5.676;2023-09-18T02:10:05;19.2;87.2
78704;SHT31;68034;51.966;5.676;2023-09-18T02:12:33;19.2;87.1
78704;SHT31;68034;51.966;5.676;2023-09-18T02:15:02;19.2;87.1
78704;SHT31;68034;51.966;5.676;2023-09-18T02:17:32;19.2;87.2
78704;SHT31;68034;51.966;5.676;2023-09-18T02:20:01;19.2;87.3
78704;SHT31;68034;51.966;5.676;2023-09-18T02:22:31;19.2;87.3
78704;SHT31;68034;51.966;5.676;2023-09-18T02:25:00;19.2;87.4
78704;SHT31;68034;51.966;5.676;2023-09-18T02:27:28;19.2;87.4
78704;SHT31;68034;51.966;5.676;2023-09-18T02:29:57;19.2;87.3
78704;SHT31;68034;51.966;5.676;2023-09-18T02:32:26;19.2;87.4
78704;SHT31;68034;51.966;5.676;2023-09-18T02:34:55;19.2;87.4
78704;SHT31;68034;51.966;5.676;2023-09-18T02:37:23;19.2;87.3
78704;SHT31;68034;51.966;5.676;2023-09-18T02:39:52;19.2;87.3
78704;SHT31;68034;51.966;5.676;2023-09-18T02:42:20;19.2;87.2
78704;SHT31;68034;51.966;5.676;2023-09-18T02:44:51;19.2;87.2
78704;SHT31;68034;51.966;5.676;2023-09-18T02:47:19;19.2;87.3
78704;SHT31;68034;51.966;5.676;2023-09-18T02:49:48;19.2;87.3
78704;SHT31;68034;51.966;5.676;2023-09-18T02:52:16;19.2;87.6
78704;SHT31;68034;51.966;5.676;2023-09-18T02:54:45;19.2;87.5
78704;SHT31;68034;51.966;5.676;2023-09-18T02:57:14;19.2;87.5
78704;SHT31;68034;51.966;5.676;2023-09-18T02:59:42;19.2;87.5
78704;SHT31;68034;51.966;5.676;2023-09-18T03:02:10;19.2;87.4
78704;SHT31;68034;51.966;5.676;2023-09-18T03:04:39;19.2;87.4
78704;SHT31;68034;51.966;5.676;2023-09-18T03:07:08;19.2;87.5
78704;SHT31;68034;51.966;5.676;2023-09-18T03:09:38;19.2;87.6
78704;SHT31;68034;51.966;5.676;2023-09-18T03:12:08;19.2;88.3
78704;SHT31;68034;51.966;5.676;2023-09-18T03:14:38;19.2;89.4
78704;SHT31;68034;51.966;5.676;2023-09-18T03:17:09;19.2;89.1
78704;SHT31;68034;51.966;5.676;2023-09-18T03:19:38;19.2;88.8
78704;SHT31;68034;51.966;5.676;2023-09-18T03:22:08;19.2;88.5
78704;SHT31;68034;51.966;5.676;2023-09-18T03:24:36;19.2;88.3
78704;SHT31;68034;51.966;5.676;2023-09-18T03:27:05;19.2;88.2
78704;SHT31;68034;51.966;5.676;2023-09-18T03:29:36;19.3;88.1
78704;SHT31;68034;51.966;5.676;2023-09-18T03:32:05;19.3;88.0
78704;SHT31;68034;51.966;5.676;2023-09-18T03:34:38;19.3;87.9
78704;SHT31;68034;51.966;5.676;2023-09-18T03:37:07;19.3;87.8
78704;SHT31;68034;51.966;5.676;2023-09-18T03:39:36;19.3;87.7
78704;SHT31;68034;51.966;5.676;2023-09-18T03:42:05;19.3;87.6
78704;SHT31;68034;51.966;5.676;2023-09-18T03:44:33;19.3;87.6
78704;SHT31;68034;51.966;5.676;2023-09-18T03:47:02;19.3;87.6
78704;SHT31;68034;51.966;5.676;2023-09-18T03:49:31;19.3;87.4
78704;SHT31;68034;51.966;5.676;2023-09-18T03:52:01;19.3;87.3
78704;SHT31;68034;51.966;5.676;2023-09-18T03:54:30;19.3;87.3
78704;SHT31;68034;51.966;5.676;2023-09-18T03:56:59;19.3;87.2
78704;SHT31;68034;51.966;5.676;2023-09-18T03:59:27;19.3;87.1
78704;SHT31;68034;51.966;5.676;2023-09-18T04:01:56;19.3;87.1
78704;SHT31;68034;51.966;5.676;2023-09-18T04:04:24;19.3;86.9
78704;SHT31;68034;51.966;5.676;2023-09-18T04:06:54;19.3;86.8
78704;SHT31;68034;51.966;5.676;2023-09-18T04:09:23;19.3;86.8
78704;SHT31;68034;51.966;5.676;2023-09-18T04:11:54;19.3;86.7
78704;SHT31;68034;51.966;5.676;2023-09-18T04:14:22;19.3;86.8
78704;SHT31;68034;51.966;5.676;2023-09-18T04:16:51;19.3;86.9
78704;SHT31;68034;51.966;5.676;2023-09-18T04:19:19;19.3;87.0
78704;SHT31;68034;51.966;5.676;2023-09-18T04:21:48;19.3;87.1
78704;SHT31;68034;51.966;5.676;2023-09-18T04:24:16;19.3;87.1
78704;SHT31;68034;51.966;5.676;2023-09-18T04:26:45;19.2;87.1
78704;SHT31;68034;51.966;5.676;2023-09-18T04:29:14;19.2;87.0
78704;SHT31;68034;51.966;5.676;2023-09-18T04:31:44;19.2;87.0
78704;SHT31;68034;51.966;5.676;2023-09-18T04:34:15;19.2;87.0
78704;SHT31;68034;51.966;5.676;2023-09-18T04:36:44;19.2;87.1
78704;SHT31;68034;51.966;5.676;2023-09-18T04:39:12;19.2;87.2
78704;SHT31;68034;51.966;5.676;2023-09-18T04:41:44;19.2;87.3
78704;SHT31;68034;51.966;5.676;2023-09-18T04:44:12;19.2;87.3
78704;SHT31;68034;51.966;5.676;2023-09-18T04:46:41;19.2;87.4
78704;SHT31;68034;51.966;5.676;2023-09-18T04:49:10;19.2;87.4
78704;SHT31;68034;51.966;5.676;2023-09-18T04:51:41;19.2;87.4
78704;SHT31;68034;51.966;5.676;2023-09-18T04:54:12;19.2;87.3
78704;SHT31;68034;51.966;5.676;2023-09-18T04:56:42;19.2;87.4
78704;SHT31;68034;51.966;5.676;2023-09-18T04:59:10;19.2;87.4
78704;SHT31;68034;51.966;5.676;2023-09-18T05:01:39;19.2;87.1
78704;SHT31;68034;51.966;5.676;2023-09-18T05:04:09;19.1;87.0
78704;SHT31;68034;51.966;5.676;2023-09-18T05:06:38;19.1;87.3
78704;SHT31;68034;51.966;5.676;2023-09-18T05:09:08;19.0;87.7
78704;SHT31;68034;51.966;5.676;2023-09-18T05:11:37;19.0;88.5
78704;SHT31;68034;51.966;5.676;2023-09-18T05:14:08;18.9;89.7
78704;SHT31;68034;51.966;5.676;2023-09-18T05:16:37;18.9;90.2
78704;SHT31;68034;51.966;5.676;2023-09-18T05:19:05;18.9;90.3
78704;SHT31;68034;51.966;5.676;2023-09-18T05:21:34;18.9;90.3
78704;SHT31;68034;51.966;5.676;2023-09-18T05:24:03;18.8;90.2
78704;SHT31;68034;51.966;5.676;2023-09-18T05:26:32;18.8;90.3
78704;SHT31;68034;51.966;5.676;2023-09-18T05:29:01;18.8;90.4
78704;SHT31;68034;51.966;5.676;2023-09-18T05:31:30;18.8;90.6
78704;SHT31;68034;51.966;5.676;2023-09-18T05:33:58;18.8;90.7
78704;SHT31;68034;51.966;5.676;2023-09-18T05:36:27;18.8;90.7
78704;SHT31;68034;51.966;5.676;2023-09-18T05:38:55;18.8;90.8
78704;SHT31;68034;51.966;5.676;2023-09-18T05:41:24;18.8;90.8
78704;SHT31;68034;51.966;5.676;2023-09-18T05:43:55;18.8;90.8
78704;SHT31;68034;51.966;5.676;2023-09-18T05:46:26;18.8;90.8
78704;SHT31;68034;51.966;5.676;2023-09-18T05:48:54;18.8;90.8
78704;SHT31;68034;51.966;5.676;2023-09-18T05:51:24;18.8;90.7
78704;SHT31;68034;51.966;5.676;2023-09-18T05:53:53;18.8;90.6
78704;SHT31;68034;51.966;5.676;2023-09-18T05:56:22;18.8;90.6
78704;SHT31;68034;51.966;5.676;2023-09-18T05:58:50;18.8;90.7
78704;SHT31;68034;51.966;5.676;2023-09-18T06:01:22;18.8;90.8
78704;SHT31;68034;51.966;5.676;2023-09-18T06:03:51;18.8;90.8
78704;SHT31;68034;51.966;5.676;2023-09-18T06:06:22;18.8;90.8
78704;SHT31;68034;51.966;5.676;2023-09-18T06:08:51;18.8;90.8
78704;SHT31;68034;51.966;5.676;2023-09-18T06:11:20;18.8;90.8
78704;SHT31;68034;51.966;5.676;2023-09-18T06:13:49;18.8;90.8
78704;SHT31;68034;51.966;5.676;2023-09-18T06:16:18;18.8;90.9
78704;SHT31;68034;51.966;5.676;2023-09-18T06:18:46;18.8;90.9
78704;SHT31;68034;51.966;5.676;2023-09-18T06:21:15;18.8;90.9
78704;SHT31;68034;51.966;5.676;2023-09-18T06:23:43;18.8;91.0
78704;SHT31;68034;51.966;5.676;2023-09-18T06:26:12;18.8;91.0
78704;SHT31;68034;51.966;5.676;2023-09-18T06:28:40;18.8;91.0
78704;SHT31;68034;51.966;5.676;2023-09-18T06:31:09;18.8;91.1
78704;SHT31;68034;51.966;5.676;2023-09-18T06:33:39;18.8;91.2
78704;SHT31;68034;51.966;5.676;2023-09-18T06:36:07;18.8;91.3
78704;SHT31;68034;51.966;5.676;2023-09-18T06:38:36;18.8;91.4
78704;SHT31;68034;51.966;5.676;2023-09-18T06:41:05;18.8;91.8
78704;SHT31;68034;51.966;5.676;2023-09-18T06:43:33;18.8;92.4
78704;SHT31;68034;51.966;5.676;2023-09-18T06:46:02;18.8;92.6
78704;SHT31;68034;51.966;5.676;2023-09-18T06:48:30;18.8;92.3
78704;SHT31;68034;51.966;5.676;2023-09-18T06:50:59;18.9;92.3
78704;SHT31;68034;51.966;5.676;2023-09-18T06:53:28;18.9;92.2
78704;SHT31;68034;51.966;5.676;2023-09-18T06:55:57;18.9;92.1
78704;SHT31;68034;51.966;5.676;2023-09-18T06:58:26;18.9;92.1
78704;SHT31;68034;51.966;5.676;2023-09-18T07:00:56;18.9;91.8
78704;SHT31;68034;51.966;5.676;2023-09-18T07:03:26;18.9;91.6
78704;SHT31;68034;51.966;5.676;2023-09-18T07:05:54;19.0;91.6
78704;SHT31;68034;51.966;5.676;2023-09-18T07:08:23;19.0;91.6
78704;SHT31;68034;51.966;5.676;2023-09-18T07:10:52;19.0;92.1
78704;SHT31;68034;51.966;5.676;2023-09-18T07:13:23;19.0;92.8
78704;SHT31;68034;51.966;5.676;2023-09-18T07:15:51;19.0;92.9
78704;SHT31;68034;51.966;5.676;2023-09-18T07:18:20;19.0;92.7
78704;SHT31;68034;51.966;5.676;2023-09-18T07:20:49;19.0;92.5
78704;SHT31;68034;51.966;5.676;2023-09-18T07:23:17;19.1;92.5
78704;SHT31;68034;51.966;5.676;2023-09-18T07:25:47;19.1;92.3
78704;SHT31;68034;51.966;5.676;2023-09-18T07:28:15;19.1;92.0
78704;SHT31;68034;51.966;5.676;2023-09-18T07:30:46;19.1;91.9
78704;SHT31;68034;51.966;5.676;2023-09-18T07:33:15;19.1;91.7
78704;SHT31;68034;51.966;5.676;2023-09-18T07:35:48;19.1;91.6
78704;SHT31;68034;51.966;5.676;2023-09-18T07:38:18;19.1;91.3
78704;SHT31;68034;51.966;5.676;2023-09-18T07:40:48;19.2;91.4
78704;SHT31;68034;51.966;5.676;2023-09-18T07:43:16;19.2;91.1
78704;SHT31;68034;51.966;5.676;2023-09-18T07:45:45;19.2;90.8
78704;SHT31;68034;51.966;5.676;2023-09-18T07:48:13;19.2;90.6
78704;SHT31;68034;51.966;5.676;2023-09-18T07:50:45;19.2;90.4
78704;SHT31;68034;51.966;5.676;2023-09-18T07:53:15;19.2;90.5
78704;SHT31;68034;51.966;5.676;2023-09-18T07:55:44;19.2;90.6
78704;SHT31;68034;51.966;5.676;2023-09-18T07:58:13;19.2;90.5
78704;SHT31;68034;51.966;5.676;2023-09-18T08:00:42;19.2;90.3
78704;SHT31;68034;51.966;5.676;2023-09-18T08:03:11;19.2;90.2
78704;SHT31;68034;51.966;5.676;2023-09-18T08:05:40;19.2;90.1
78704;SHT31;68034;51.966;5.676;2023-09-18T08:08:08;19.2;90.3
78704;SHT31;68034;51.966;5.676;2023-09-18T08:10:40;19.2;90.5
78704;SHT31;68034;51.966;5.676;2023-09-18T08:13:08;19.3;90.3
78704;SHT31;68034;51.966;5.676;2023-09-18T08:15:37;19.3;90.2
78704;SHT31;68034;51.966;5.676;2023-09-18T08:18:06;19.3;90.1
78704;SHT31;68034;51.966;5.676;2023-09-18T08:20:35;19.3;90.0
78704;SHT31;68034;51.966;5.676;2023-09-18T08:23:04;19.3;89.7
78704;SHT31;68034;51.966;5.676;2023-09-18T08:25:32;19.3;89.6
78704;SHT31;68034;51.966;5.676;2023-09-18T08:28:01;19.3;89.4
78704;SHT31;68034;51.966;5.676;2023-09-18T08:30:30;19.3;89.3
78704;SHT31;68034;51.966;5.676;2023-09-18T08:32:59;19.3;89.1
78704;SHT31;68034;51.966;5.676;2023-09-18T08:35:28;19.3;89.0
78704;SHT31;68034;51.966;5.676;2023-09-18T08:37:57;19.3;88.8
78704;SHT31;68034;51.966;5.676;2023-09-18T08:40:26;19.3;88.7
78704;SHT31;68034;51.966;5.676;2023-09-18T08:42:58;19.3;88.8
78704;SHT31;68034;51.966;5.676;2023-09-18T08:45:35;19.3;89.0
78704;SHT31;68034;51.966;5.676;2023-09-18T08:48:06;19.3;89.4
78704;SHT31;68034;51.966;5.676;2023-09-18T08:50:36;19.4;89.5
78704;SHT31;68034;51.966;5.676;2023-09-18T08:53:05;19.4;89.3
78704;SHT31;68034;51.966;5.676;2023-09-18T08:55:35;19.4;88.9
78704;SHT31;68034;51.966;5.676;2023-09-18T08:58:06;19.4;88.5
78704;SHT31;68034;51.966;5.676;2023-09-18T09:00:38;19.4;88.6
78704;SHT31;68034;51.966;5.676;2023-09-18T09:03:06;19.4;88.4
78704;SHT31;68034;51.966;5.676;2023-09-18T09:05:38;19.4;88.3
78704;SHT31;68034;51.966;5.676;2023-09-18T09:08:06;19.4;88.1
78704;SHT31;68034;51.966;5.676;2023-09-18T09:10:35;19.4;88.2
78704;SHT31;68034;51.966;5.676;2023-09-18T09:13:06;19.4;89.3
78704;SHT31;68034;51.966;5.676;2023-09-18T09:15:45;19.5;89.3
78704;SHT31;68034;51.966;5.676;2023-09-18T09:18:16;19.5;89.1
78704;SHT31;68034;51.966;5.676;2023-09-18T09:20:55;19.5;89.1
78704;SHT31;68034;51.966;5.676;2023-09-18T09:23:26;19.5;88.8
78704;SHT31;68034;51.966;5.676;2023-09-18T09:26:15;19.5;88.6
78704;SHT31;68034;51.966;5.676;2023-09-18T09:28:46;19.5;88.9
78704;SHT31;68034;51.966;5.676;2023-09-18T09:31:25;19.6;88.8
78704;SHT31;68034;51.966;5.676;2023-09-18T09:33:55;19.6;88.5
78704;SHT31;68034;51.966;5.676;2023-09-18T09:36:25;19.6;88.3
78704;SHT31;68034;51.966;5.676;2023-09-18T09:38:57;19.6;88.4
78704;SHT31;68034;51.966;5.676;2023-09-18T09:41:26;19.7;88.4
78704;SHT31;68034;51.966;5.676;2023-09-18T09:43:56;19.7;88.2
78704;SHT31;68034;51.966;5.676;2023-09-18T09:46:25;19.8;88.1
78704;SHT31;68034;51.966;5.676;2023-09-18T09:49:05;19.8;88.0
78704;SHT31;68034;51.966;5.676;2023-09-18T09:51:33;19.9;88.5
78704;SHT31;68034;51.966;5.676;2023-09-18T09:54:04;20.0;88.4
78704;SHT31;68034;51.966;5.676;2023-09-18T09:56:44;20.1;88.9
78704;SHT31;68034;51.966;5.676;2023-09-18T09:59:15;20.2;89.0
78704;SHT31;68034;51.966;5.676;2023-09-18T10:01:47;20.3;88.6
78704;SHT31;68034;51.966;5.676;2023-09-18T10:04:18;20.5;88.1
78704;SHT31;68034;51.966;5.676;2023-09-18T10:06:52;20.5;87.2
78704;SHT31;68034;51.966;5.676;2023-09-18T10:09:22;20.6;86.5
78704;SHT31;68034;51.966;5.676;2023-09-18T10:11:54;20.6;85.4
78704;SHT31;68034;51.966;5.676;2023-09-18T10:14:29;20.7;84.2
78704;SHT31;68034;51.966;5.676;2023-09-18T10:17:07;20.7;83.9
78704;SHT31;68034;51.966;5.676;2023-09-18T10:19:43;20.7;83.6
78704;SHT31;68034;51.966;5.676;2023-09-18T10:22:24;20.7;83.1
78704;SHT31;68034;51.966;5.676;2023-09-18T10:24:59;20.7;82.7
78704;SHT31;68034;51.966;5.676;2023-09-18T10:27:35;20.8;82.6
78704;SHT31;68034;51.966;5.676;2023-09-18T10:30:07;20.8;82.5
78704;SHT31;68034;51.966;5.676;2023-09-18T10:32:40;20.8;82.4
78704;SHT31;68034;51.966;5.676;2023-09-18T10:35:13;20.8;82.5
78704;SHT31;68034;51.966;5.676;2023-09-18T10:37:42;20.8;82.4
78704;SHT31;68034;51.966;5.676;2023-09-18T10:40:12;20.8;82.3
78704;SHT31;68034;51.966;5.676;2023-09-18T10:42:41;20.8;82.1
78704;SHT31;68034;51.966;5.676;2023-09-18T10:45:11;20.7;82.3
78704;SHT31;68034;51.966;5.676;2023-09-18T10:47:44;20.7;82.6
78704;SHT31;68034;51.966;5.676;2023-09-18T10:50:27;20.7;82.5
78704;SHT31;68034;51.966;5.676;2023-09-18T10:52:59;20.7;82.6
78704;SHT31;68034;51.966;5.676;2023-09-18T10:55:28;20.7;82.4
78704;SHT31;68034;51.966;5.676;2023-09-18T10:57:58;20.7;82.3
78704;SHT31;68034;51.966;5.676;2023-09-18T11:00:29;20.7;81.9
78704;SHT31;68034;51.966;5.676;2023-09-18T11:03:14;20.7;81.6
78704;SHT31;68034;51.966;5.676;2023-09-18T11:05:44;20.7;81.5
78704;SHT31;68034;51.966;5.676;2023-09-18T11:08:27;20.8;81.4
78704;SHT31;68034;51.966;5.676;2023-09-18T11:11:10;20.8;81.5
78704;SHT31;68034;51.966;5.676;2023-09-18T11:13:50;20.8;83.1
78704;SHT31;68034;51.966;5.676;2023-09-18T11:16:36;20.9;83.6
78704;SHT31;68034;51.966;5.676;2023-09-18T11:19:09;20.9;83.9
78704;SHT31;68034;51.966;5.676;2023-09-18T11:21:40;21.0;83.4
78704;SHT31;68034;51.966;5.676;2023-09-18T11:24:17;21.1;82.7
78704;SHT31;68034;51.966;5.676;2023-09-18T11:26:48;21.2;82.2
78704;SHT31;68034;51.966;5.676;2023-09-18T11:29:22;21.2;81.5
78704;SHT31;68034;51.966;5.676;2023-09-18T11:31:54;21.3;80.9
78704;SHT31;68034;51.966;5.676;2023-09-18T11:34:25;21.3;81.0
78704;SHT31;68034;51.966;5.676;2023-09-18T11:36:55;21.3;80.8
78704;SHT31;68034;51.966;5.676;2023-09-18T11:39:38;21.4;80.7
78704;SHT31;68034;51.966;5.676;2023-09-18T11:42:12;21.4;79.9
78704;SHT31;68034;51.966;5.676;2023-09-18T11:44:43;21.5;80.0
78704;SHT31;68034;51.966;5.676;2023-09-18T11:47:15;21.5;79.5
78704;SHT31;68034;51.966;5.676;2023-09-18T11:49:48;21.6;79.1
78704;SHT31;68034;51.966;5.676;2023-09-18T11:52:21;21.6;79.1
78704;SHT31;68034;51.966;5.676;2023-09-18T11:54:51;21.6;79.1
78704;SHT31;68034;51.966;5.676;2023-09-18T11:57:21;21.7;79.1
78704;SHT31;68034;51.966;5.676;2023-09-18T11:59:49;21.8;78.8
78704;SHT31;68034;51.966;5.676;2023-09-18T12:02:27;21.8;78.5
78704;SHT31;68034;51.966;5.676;2023-09-18T12:05:05;21.9;77.1
78704;SHT31;68034;51.966;5.676;2023-09-18T12:07:36;21.9;76.7
78704;SHT31;68034;51.966;5.676;2023-09-18T12:10:08;21.9;76.1
78704;SHT31;68034;51.966;5.676;2023-09-18T12:12:36;21.8;75.5
78704;SHT31;68034;51.966;5.676;2023-09-18T12:15:06;21.8;75.2
78704;SHT31;68034;51.966;5.676;2023-09-18T12:17:35;21.8;75.4
78704;SHT31;68034;51.966;5.676;2023-09-18T12:20:04;21.8;75.5
78704;SHT31;68034;51.966;5.676;2023-09-18T12:22:33;21.8;76.1
78704;SHT31;68034;51.966;5.676;2023-09-18T12:25:10;21.9;76.6
78704;SHT31;68034;51.966;5.676;2023-09-18T12:27:39;21.9;76.8
78704;SHT31;68034;51.966;5.676;2023-09-18T12:30:08;22.0;76.9
78704;SHT31;68034;51.966;5.676;2023-09-18T12:32:38;22.1;77.0
78704;SHT31;68034;51.966;5.676;2023-09-18T12:35:08;22.2;76.9
78704;SHT31;68034;51.966;5.676;2023-09-18T12:37:39;22.3;76.6
78704;SHT31;68034;51.966;5.676;2023-09-18T12:40:26;22.3;76.3
78704;SHT31;68034;51.966;5.676;2023-09-18T12:42:56;22.4;76.1
78704;SHT31;68034;51.966;5.676;2023-09-18T12:45:30;22.5;76.1
78704;SHT31;68034;51.966;5.676;2023-09-18T12:48:00;22.5;76.6
78704;SHT31;68034;51.966;5.676;2023-09-18T12:50:30;22.6;76.3
78704;SHT31;68034;51.966;5.676;2023-09-18T12:53:11;22.7;75.6
78704;SHT31;68034;51.966;5.676;2023-09-18T12:55:42;22.8;74.9
78704;SHT31;68034;51.966;5.676;2023-09-18T12:58:12;22.8;74.1
78704;SHT31;68034;51.966;5.676;2023-09-18T13:00:46;22.8;73.8
78704;SHT31;68034;51.966;5.676;2023-09-18T13:03:16;22.8;73.8
78704;SHT31;68034;51.966;5.676;2023-09-18T13:05:45;22.9;74.2
78704;SHT31;68034;51.966;5.676;2023-09-18T13:08:14;22.9;74.3
78704;SHT31;68034;51.966;5.676;2023-09-18T13:10:46;23.0;74.3
78704;SHT31;68034;51.966;5.676;2023-09-18T13:13:20;23.0;74.4
78704;SHT31;68034;51.966;5.676;2023-09-18T13:15:51;23.1;74.3
78704;SHT31;68034;51.966;5.676;2023-09-18T13:18:20;23.2;73.5
78704;SHT31;68034;51.966;5.676;2023-09-18T13:20:52;23.2;73.1
78704;SHT31;68034;51.966;5.676;2023-09-18T13:23:31;23.2;73.2
78704;SHT31;68034;51.966;5.676;2023-09-18T13:26:03;23.3;73.3
78704;SHT31;68034;51.966;5.676;2023-09-18T13:28:33;23.4;72.8
78704;SHT31;68034;51.966;5.676;2023-09-18T13:31:05;23.4;72.5
78704;SHT31;68034;51.966;5.676;2023-09-18T13:33:38;23.4;72.5
78704;SHT31;68034;51.966;5.676;2023-09-18T13:36:12;23.5;73.1
78704;SHT31;68034;51.966;5.676;2023-09-18T13:38:41;23.6;72.2
78704;SHT31;68034;51.966;5.676;2023-09-18T13:41:11;23.7;71.4
78704;SHT31;68034;51.966;5.676;2023-09-18T13:43:39;23.8;71.4
78704;SHT31;68034;51.966;5.676;2023-09-18T13:46:08;23.8;71.2
78704;SHT31;68034;51.966;5.676;2023-09-18T13:48:38;23.9;71.1
78704;SHT31;68034;51.966;5.676;2023-09-18T13:51:06;24.0;71.0
78704;SHT31;68034;51.966;5.676;2023-09-18T13:53:36;24.1;70.5
78704;SHT31;68034;51.966;5.676;2023-09-18T13:56:07;24.1;70.0
78704;SHT31;68034;51.966;5.676;2023-09-18T13:58:35;24.2;69.8
78704;SHT31;68034;51.966;5.676;2023-09-18T14:01:07;24.2;69.4
78704;SHT31;68034;51.966;5.676;2023-09-18T14:03:36;24.3;69.3
78704;SHT31;68034;51.966;5.676;2023-09-18T14:06:08;24.3;68.9
78704;SHT31;68034;51.966;5.676;2023-09-18T14:08:37;24.3;68.3
78704;SHT31;68034;51.966;5.676;2023-09-18T14:11:06;24.4;68.4
78704;SHT31;68034;51.966;5.676;2023-09-18T14:13:35;24.4;68.4
78704;SHT31;68034;51.966;5.676;2023-09-18T14:16:04;24.5;68.1
78704;SHT31;68034;51.966;5.676;2023-09-18T14:18:34;24.5;67.6
78704;SHT31;68034;51.966;5.676;2023-09-18T14:21:02;24.5;67.2
78704;SHT31;68034;51.966;5.676;2023-09-18T14:23:31;24.5;66.8
78704;SHT31;68034;51.966;5.676;2023-09-18T14:26:00;24.5;66.4
78704;SHT31;68034;51.966;5.676;2023-09-18T14:28:29;24.5;65.8
78704;SHT31;68034;51.966;5.676;2023-09-18T14:30:59;24.5;65.2
78704;SHT31;68034;51.966;5.676;2023-09-18T14:33:27;24.5;65.4
78704;SHT31;68034;51.966;5.676;2023-09-18T14:35:56;24.4;65.2
78704;SHT31;68034;51.966;5.676;2023-09-18T14:38:24;24.4;64.5
78704;SHT31;68034;51.966;5.676;2023-09-18T14:40:53;24.4;64.0
78704;SHT31;68034;51.966;5.676;2023-09-18T14:43:27;24.3;64.4
78704;SHT31;68034;51.966;5.676;2023-09-18T14:45:55;24.3;64.5
78704;SHT31;68034;51.966;5.676;2023-09-18T14:48:26;24.2;64.3
78704;SHT31;68034;51.966;5.676;2023-09-18T14:50:57;24.2;64.2
78704;SHT31;68034;51.966;5.676;2023-09-18T14:53:28;24.1;64.0
78704;SHT31;68034;51.966;5.676;2023-09-18T14:55:57;24.1;63.7
78704;SHT31;68034;51.966;5.676;2023-09-18T14:58:26;24.0;63.6
78704;SHT31;68034;51.966;5.676;2023-09-18T15:00:55;23.9;63.6
78704;SHT31;68034;51.966;5.676;2023-09-18T15:03:23;23.9;63.8
78704;SHT31;68034;51.966;5.676;2023-09-18T15:05:53;23.8;63.7
78704;SHT31;68034;51.966;5.676;2023-09-18T15:08:23;23.8;64.0
78704;SHT31;68034;51.966;5.676;2023-09-18T15:10:52;23.7;64.2
78704;SHT31;68034;51.966;5.676;2023-09-18T15:13:20;23.7;64.7
78704;SHT31;68034;51.966;5.676;2023-09-18T15:15:51;23.6;64.9
78704;SHT31;68034;51.966;5.676;2023-09-18T15:18:21;23.6;64.6
78704;SHT31;68034;51.966;5.676;2023-09-18T15:20:49;23.5;64.5
78704;SHT31;68034;51.966;5.676;2023-09-18T15:23:20;23.5;64.4
78704;SHT31;68034;51.966;5.676;2023-09-18T15:25:51;23.3;63.8
78704;SHT31;68034;51.966;5.676;2023-09-18T15:28:20;22.7;64.1
78704;SHT31;68034;51.966;5.676;2023-09-18T15:30:51;21.9;65.1
78704;SHT31;68034;51.966;5.676;2023-09-18T15:33:20;21.2;66.6
78704;SHT31;68034;51.966;5.676;2023-09-18T15:35:52;20.8;68.4
78704;SHT31;68034;51.966;5.676;2023-09-18T15:38:21;20.4;69.3
78704;SHT31;68034;51.966;5.676;2023-09-18T15:40:51;20.1;69.7
78704;SHT31;68034;51.966;5.676;2023-09-18T15:43:20;19.8;70.3
78704;SHT31;68034;51.966;5.676;2023-09-18T15:45:48;19.6;71.4
78704;SHT31;68034;51.966;5.676;2023-09-18T15:48:21;19.5;71.7
78704;SHT31;68034;51.966;5.676;2023-09-18T15:50:51;19.3;72.3
78704;SHT31;68034;51.966;5.676;2023-09-18T15:53:19;19.2;72.9
78704;SHT31;68034;51.966;5.676;2023-09-18T15:55:48;19.1;73.4
78704;SHT31;68034;51.966;5.676;2023-09-18T15:58:16;19.0;73.7
78704;SHT31;68034;51.966;5.676;2023-09-18T16:00:47;18.9;74.2
78704;SHT31;68034;51.966;5.676;2023-09-18T16:03:16;18.8;74.7
78704;SHT31;68034;51.966;5.676;2023-09-18T16:05:45;18.8;75.2
78704;SHT31;68034;51.966;5.676;2023-09-18T16:08:18;18.7;75.6
78704;SHT31;68034;51.966;5.676;2023-09-18T16:10:47;18.6;76.3
78704;SHT31;68034;51.966;5.676;2023-09-18T16:13:16;18.6;77.0
78704;SHT31;68034;51.966;5.676;2023-09-18T16:15:45;18.6;77.4
78704;SHT31;68034;51.966;5.676;2023-09-18T16:18:13;18.6;77.4
78704;SHT31;68034;51.966;5.676;2023-09-18T16:20:45;18.5;77.3